createdAt,value
2023-08-04T00:00:48.124Z,1.40
2023-08-04T00:03:30.512Z,2.00
2023-08-04T00:05:58.171Z,2.20
2023-08-04T00:08:25.715Z,2.00
2023-08-04T00:10:53.228Z,2.00
2023-08-04T00:13:20.709Z,2.00
2023-08-04T00:15:48.198Z,2.00
2023-08-04T00:18:15.691Z,1.60
2023-08-04T00:20:43.233Z,1.70
2023-08-04T00:23:10.777Z,1.50
2023-08-04T00:25:38.270Z,2.00
2023-08-04T00:28:06.054Z,2.00
2023-08-04T00:30:33.555Z,2.00
2023-08-04T00:33:02.445Z,1.80
2023-08-04T00:35:30.032Z,1.50
2023-08-04T00:37:57.560Z,1.50
2023-08-04T00:40:25.073Z,1.70
2023-08-04T00:42:52.571Z,1.70
2023-08-04T00:45:20.212Z,2.00
2023-08-04T00:47:47.742Z,1.90
2023-08-04T00:50:16.664Z,1.80
2023-08-04T00:52:45.757Z,2.00
2023-08-04T00:55:15.757Z,1.90
2023-08-04T00:57:44.412Z,1.60
2023-08-04T01:00:12.555Z,1.70
2023-08-04T01:02:40.156Z,1.70
2023-08-04T01:05:08.272Z,1.50
2023-08-04T01:07:43.524Z,1.80
2023-08-04T01:10:17.173Z,1.60
2023-08-04T01:12:57.730Z,1.90
2023-08-04T01:15:27.026Z,1.60
2023-08-04T01:17:55.929Z,1.90
2023-08-04T01:20:27.799Z,1.70
2023-08-04T01:22:55.512Z,1.90
2023-08-04T01:25:32.537Z,1.80
2023-08-04T01:28:08.975Z,1.90
2023-08-04T01:30:39.306Z,2.00
2023-08-04T01:33:07.112Z,1.60
2023-08-04T01:35:34.713Z,2.00
2023-08-04T01:38:02.325Z,2.10
2023-08-04T01:40:29.885Z,1.70
2023-08-04T01:42:57.729Z,1.70
2023-08-04T01:45:25.323Z,1.80
2023-08-04T01:47:53.109Z,1.90
2023-08-04T01:50:20.794Z,2.00
2023-08-04T01:52:48.905Z,1.90
2023-08-04T01:55:16.523Z,1.70
2023-08-04T01:57:45.134Z,2.10
2023-08-04T02:00:14.567Z,1.70
2023-08-04T02:02:42.078Z,2.10
2023-08-04T02:05:10.010Z,1.80
2023-08-04T02:07:37.740Z,2.00
2023-08-04T02:10:06.158Z,1.70
2023-08-04T02:12:33.705Z,1.50
2023-08-04T02:15:01.625Z,1.90
2023-08-04T02:17:29.643Z,2.00
2023-08-04T02:19:57.315Z,1.60
2023-08-04T02:22:25.006Z,1.70
2023-08-04T02:24:52.541Z,1.70
2023-08-04T02:27:20.067Z,1.90
2023-08-04T02:29:47.669Z,1.70
2023-08-04T02:32:15.373Z,1.50
2023-08-04T02:34:42.874Z,2.00
2023-08-04T02:37:10.374Z,1.40
2023-08-04T02:39:37.857Z,1.50
2023-08-04T02:42:05.655Z,1.40
2023-08-04T02:44:33.166Z,1.40
2023-08-04T02:47:00.683Z,1.40
2023-08-04T02:49:28.874Z,1.50
2023-08-04T02:51:56.722Z,1.30
2023-08-04T02:54:24.308Z,1.40
2023-08-04T02:56:51.820Z,1.40
2023-08-04T02:59:19.302Z,1.30
2023-08-04T03:01:47.193Z,1.40
2023-08-04T03:04:15.839Z,1.40
2023-08-04T03:06:43.388Z,1.50
2023-08-04T03:09:10.897Z,1.40
2023-08-04T03:11:38.441Z,1.40
2023-08-04T03:14:06.276Z,1.40
2023-08-04T03:16:33.868Z,1.30
2023-08-04T03:19:01.636Z,1.70
2023-08-04T03:21:29.132Z,1.40
2023-08-04T03:23:56.650Z,1.40
2023-08-04T03:26:24.248Z,1.60
2023-08-04T03:28:51.758Z,1.60
2023-08-04T03:31:19.463Z,1.60
2023-08-04T03:33:47.756Z,1.50
2023-08-04T03:36:15.272Z,1.40
2023-08-04T03:38:42.906Z,1.30
2023-08-04T03:41:10.561Z,1.30
2023-08-04T03:43:38.159Z,1.40
2023-08-04T03:46:05.714Z,1.40
2023-08-04T03:48:33.305Z,1.50
2023-08-04T03:51:00.825Z,1.30
2023-08-04T03:53:28.341Z,1.30
2023-08-04T03:55:55.896Z,1.20
2023-08-04T03:58:23.400Z,1.30
2023-08-04T04:00:50.972Z,1.40
2023-08-04T04:03:18.517Z,1.30
2023-08-04T04:05:46.142Z,1.50
2023-08-04T04:08:13.719Z,1.50
2023-08-04T04:10:41.240Z,1.60
2023-08-04T04:13:08.884Z,1.20
2023-08-04T04:15:36.426Z,1.20
2023-08-04T04:18:04.059Z,1.40
2023-08-04T04:20:31.766Z,1.20
2023-08-04T04:22:59.301Z,1.50
2023-08-04T04:25:26.870Z,1.30
2023-08-04T04:27:54.379Z,1.30
2023-08-04T04:30:22.021Z,1.40
2023-08-04T04:32:49.706Z,1.50
2023-08-04T04:35:17.350Z,1.50
2023-08-04T04:37:44.883Z,1.30
2023-08-04T04:40:12.478Z,1.30
2023-08-04T04:42:40.024Z,1.20
2023-08-04T04:45:08.256Z,1.10
2023-08-04T04:47:35.846Z,1.30
2023-08-04T04:50:03.604Z,1.40
2023-08-04T04:52:37.045Z,1.30
2023-08-04T04:57:38.493Z,1.50
2023-08-04T05:00:06.952Z,1.20
2023-08-04T05:02:34.480Z,1.30
2023-08-04T05:05:02.064Z,1.30
2023-08-04T05:07:29.682Z,1.20
2023-08-04T05:09:57.240Z,1.50
2023-08-04T05:12:24.780Z,1.40
2023-08-04T05:14:52.272Z,1.40
2023-08-04T05:17:19.797Z,1.60
2023-08-04T05:19:47.369Z,1.10
2023-08-04T05:22:14.997Z,1.50
2023-08-04T05:24:42.665Z,1.30
2023-08-04T05:27:10.443Z,1.40
2023-08-04T05:29:37.977Z,1.40
2023-08-04T05:32:05.682Z,1.30
2023-08-04T05:34:33.233Z,1.30
2023-08-04T05:37:00.874Z,1.10
2023-08-04T05:39:28.412Z,1.40
2023-08-04T05:41:55.956Z,1.40
2023-08-04T05:44:23.789Z,1.10
2023-08-04T05:46:51.306Z,1.30
2023-08-04T05:49:18.955Z,1.30
2023-08-04T05:51:47.572Z,1.40
2023-08-04T05:54:15.635Z,1.20
2023-08-04T05:56:43.257Z,1.40
2023-08-04T05:59:10.792Z,1.30
2023-08-04T06:01:38.414Z,1.20
2023-08-04T06:04:06.097Z,1.20
2023-08-04T06:06:33.606Z,1.30
2023-08-04T06:09:01.083Z,1.30
2023-08-04T06:11:28.591Z,1.20
2023-08-04T06:13:56.352Z,1.40
2023-08-04T06:16:23.892Z,1.20
2023-08-04T06:18:51.531Z,1.50
2023-08-04T06:21:19.041Z,1.10
2023-08-04T06:23:46.986Z,1.10
2023-08-04T06:26:14.659Z,0.90
2023-08-04T06:28:42.384Z,1.30
2023-08-04T06:31:10.069Z,1.30
2023-08-04T06:33:37.831Z,1.20
2023-08-04T06:36:08.591Z,1.20
2023-08-04T06:38:36.231Z,1.20
2023-08-04T06:41:03.816Z,1.10
2023-08-04T06:43:31.333Z,1.20
2023-08-04T06:45:58.853Z,1.00
2023-08-04T06:48:27.575Z,1.00
2023-08-04T06:50:55.063Z,1.10
2023-08-04T06:53:22.635Z,1.10
2023-08-04T06:55:50.187Z,1.30
2023-08-04T06:58:17.682Z,1.30
2023-08-04T07:00:46.259Z,1.10
2023-08-04T07:03:14.223Z,1.10
2023-08-04T07:05:41.942Z,1.10
2023-08-04T07:08:09.461Z,1.20
2023-08-04T07:10:37.024Z,1.10
2023-08-04T07:13:04.605Z,1.20
2023-08-04T07:15:32.869Z,1.20
2023-08-04T07:18:00.471Z,1.10
2023-08-04T07:20:29.524Z,1.00
2023-08-04T07:22:57.038Z,1.10
2023-08-04T07:25:24.536Z,1.10
2023-08-04T07:27:52.030Z,1.10
2023-08-04T07:30:19.608Z,1.00
2023-08-04T07:32:47.367Z,1.20
2023-08-04T07:35:15.035Z,0.80
2023-08-04T07:37:42.661Z,1.00
2023-08-04T07:40:11.308Z,0.90
2023-08-04T07:42:38.821Z,1.00
2023-08-04T07:45:07.016Z,0.80
2023-08-04T07:47:34.559Z,0.70
2023-08-04T07:50:02.281Z,0.80
2023-08-04T07:52:29.766Z,0.90
2023-08-04T07:54:57.312Z,1.10
2023-08-04T07:57:24.810Z,0.80
2023-08-04T07:59:52.359Z,1.00
2023-08-04T08:02:19.897Z,1.00
2023-08-04T08:04:47.579Z,1.00
2023-08-04T08:07:15.213Z,1.10
2023-08-04T08:09:42.763Z,1.10
2023-08-04T08:12:10.610Z,0.90
2023-08-04T08:14:38.132Z,0.90
2023-08-04T08:17:06.134Z,0.90
2023-08-04T08:19:33.745Z,1.10
2023-08-04T08:22:01.445Z,0.80
2023-08-04T08:24:28.985Z,0.90
2023-08-04T08:26:56.579Z,1.00
